Time;durP1;ratioP1;P1;durP2;ratioP2;P2;SDS_P1;SDS_P2;PMS_P1;PMS_P2;Temp;Humidity;BMP_temperature;BMP_pressure;BME280_temperature;BME280_humidity;BME280_pressure;Samples;Min_cycle;Max_cycle;Signal;HPM_P1;HPM_P2
2022/07/28 00:02:03;;;;;;;3.83;2.47;;;;;;;;;;5113106;28;20452;-61
2022/07/28 00:04:32;;;;;;;5.67;2.63;;;;;;;;;;5113046;28;20983;-61
2022/07/28 00:06:59;;;;;;;3.40;2.33;;;;;;;;;;5113100;28;20446;-61
2022/07/28 00:09:26;;;;;;;3.40;2.17;;;;;;;;;;5112896;28;20452;-61
2022/07/28 00:11:53;;;;;;;5.30;2.73;;;;;;;;;;5113107;28;20428;-61
2022/07/28 00:14:20;;;;;;;2.80;2.00;;;;;;;;;;5113128;28;20445;-61
2022/07/28 00:16:47;;;;;;;4.83;2.63;;;;;;;;;;5113041;28;20450;-61
2022/07/28 00:19:14;;;;;;;3.10;2.30;;;;;;;;;;5112946;28;20445;-61
2022/07/28 00:21:43;;;;;;;2.70;2.27;;;;;;;;;;5112930;28;20536;-61
2022/07/28 00:24:10;;;;;;;5.57;2.50;;;;;;;;;;5113118;28;20536;-61
2022/07/28 00:26:37;;;;;;;2.30;1.90;;;;;;;;;;5113049;28;20879;-61
2022/07/28 00:29:04;;;;;;;3.57;2.40;;;;;;;;;;5113057;28;20449;-61
2022/07/28 00:31:31;;;;;;;3.93;1.97;;;;;;;;;;5112769;28;20487;-61
2022/07/28 00:33:58;;;;;;;4.73;2.40;;;;;;;;;;5112789;28;20474;-61
2022/07/28 00:36:25;;;;;;;2.30;1.87;;;;;;;;;;5112775;28;20446;-61
2022/07/28 00:38:53;;;;;;;5.03;2.37;;;;;;;;;;5112973;28;20452;-61
2022/07/28 00:41:21;;;;;;;3.33;2.20;;;;;;;;;;5113929;28;20944;-60
2022/07/28 00:43:49;;;;;;;4.97;2.73;;;;;;;;;;5116574;28;20527;-61
2022/07/28 00:46:18;;;;;;;2.67;2.47;;;;;;;;;;5116564;28;20449;-61
2022/07/28 00:48:45;;;;;;;2.47;2.23;;;;;;;;;;5116366;28;20441;-61
2022/07/28 00:51:12;;;;;;;2.57;2.37;;;;;;;;;;5116181;28;20473;-60
2022/07/28 00:53:39;;;;;;;3.03;2.20;;;;;;;;;;5116428;28;20456;-61
2022/07/28 00:56:08;;;;;;;3.60;3.07;;;;;;;;;;5116229;28;20795;-61
2022/07/28 00:58:35;;;;;;;4.90;2.43;;;;;;;;;;5116289;28;20796;-61
2022/07/28 01:01:02;;;;;;;2.67;2.20;;;;;;;;;;5116146;28;20800;-61
2022/07/28 01:03:29;;;;;;;3.27;2.73;;;;;;;;;;5116134;28;20508;-61
2022/07/28 01:06:00;;;;;;;3.23;2.20;;;;;;;;;;5116296;28;20448;-62
2022/07/28 01:08:30;;;;;;;2.57;1.83;;;;;;;;;;5116191;28;20441;-61
2022/07/28 01:11:01;;;;;;;3.20;2.20;;;;;;;;;;5115977;28;21020;-61
2022/07/28 01:13:34;;;;;;;3.10;2.37;;;;;;;;;;5116024;28;20467;-61
2022/07/28 01:16:03;;;;;;;5.40;2.53;;;;;;;;;;5115844;28;20431;-61
2022/07/28 01:18:33;;;;;;;2.43;2.23;;;;;;;;;;5116142;28;20800;-61
2022/07/28 01:21:02;;;;;;;4.33;2.27;;;;;;;;;;5115917;28;20424;-61
2022/07/28 01:23:43;;;;;;;3.47;2.10;;;;;;;;;;5115815;28;20536;-61
2022/07/28 01:26:14;;;;;;;3.20;2.60;;;;;;;;;;5115719;28;20420;-61
2022/07/28 01:28:52;;;;;;;4.00;2.50;;;;;;;;;;5115690;28;20528;-61
2022/07/28 01:31:23;;;;;;;2.63;1.83;;;;;;;;;;5115654;28;20487;-61
2022/07/28 01:33:53;;;;;;;5.47;2.67;;;;;;;;;;5115711;28;20452;-61
2022/07/28 01:36:23;;;;;;;2.73;2.13;;;;;;;;;;5115502;28;20424;-61
2022/07/28 01:38:50;;;;;;;3.67;2.57;;;;;;;;;;5115701;28;20446;-61
2022/07/28 01:41:19;;;;;;;2.70;2.50;;;;;;;;;;5115297;28;20862;-61
2022/07/28 01:43:48;;;;;;;3.00;2.00;;;;;;;;;;5115276;28;20426;-61
2022/07/28 01:46:16;;;;;;;3.40;2.20;;;;;;;;;;5115393;28;20442;-61
2022/07/28 01:48:45;;;;;;;2.77;2.00;;;;;;;;;;5115278;28;20446;-60
2022/07/28 01:51:13;;;;;;;3.10;1.90;;;;;;;;;;5115088;28;20549;-61
2022/07/28 01:53:40;;;;;;;2.50;2.20;;;;;;;;;;5114037;28;20859;-61
2022/07/28 01:56:08;;;;;;;2.13;1.93;;;;;;;;;;5114882;28;21007;-61
2022/07/28 01:58:35;;;;;;;3.87;2.77;;;;;;;;;;5115175;28;20876;-61
2022/07/28 02:01:03;;;;;;;2.63;2.40;;;;;;;;;;5115066;28;20450;-60
2022/07/28 02:03:31;;;;;;;3.63;2.17;;;;;;;;;;5114903;28;20919;-61
2022/07/28 02:06:01;;;;;;;2.70;1.63;;;;;;;;;;5114872;28;20424;-61
2022/07/28 02:08:29;;;;;;;3.03;1.87;;;;;;;;;;5115123;28;20961;-61
2022/07/28 02:13:42;;;;;;;3.10;2.50;;;;;;;;;;5114840;28;20938;-61
2022/07/28 02:16:10;;;;;;;3.77;2.07;;;;;;;;;;5114824;28;20786;-61
2022/07/28 02:18:38;;;;;;;3.20;1.90;;;;;;;;;;5114562;28;20964;-61
2022/07/28 02:21:07;;;;;;;3.20;2.47;;;;;;;;;;5114744;28;20432;-61
2022/07/28 02:23:34;;;;;;;2.83;2.50;;;;;;;;;;5114705;28;20446;-61
2022/07/28 02:26:02;;;;;;;3.30;2.20;;;;;;;;;;5114520;28;20541;-61
2022/07/28 02:28:29;;;;;;;2.00;1.90;;;;;;;;;;5114508;28;20432;-60
2022/07/28 02:30:58;;;;;;;5.73;2.73;;;;;;;;;;5114188;28;21002;-61
2022/07/28 02:33:26;;;;;;;2.40;2.20;;;;;;;;;;5114338;28;20948;-61
2022/07/28 02:35:55;;;;;;;2.43;2.07;;;;;;;;;;5114510;28;20552;-61
2022/07/28 02:38:24;;;;;;;3.73;2.23;;;;;;;;;;5114370;28;20446;-61
2022/07/28 02:40:53;;;;;;;3.20;2.90;;;;;;;;;;5114256;28;20463;-61
2022/07/28 02:43:24;;;;;;;2.43;2.03;;;;;;;;;;5114278;28;20464;-61
2022/07/28 02:45:52;;;;;;;2.50;2.23;;;;;;;;;;5114418;28;20765;-61
2022/07/28 02:48:21;;;;;;;2.30;2.10;;;;;;;;;;5114277;28;20445;-61
2022/07/28 02:50:48;;;;;;;2.20;2.00;;;;;;;;;;5114049;28;20531;-61
2022/07/28 02:53:15;;;;;;;3.20;2.10;;;;;;;;;;5114093;28;20445;-61
2022/07/28 02:55:44;;;;;;;4.20;2.20;;;;;;;;;;5113882;28;20452;-61
2022/07/28 02:58:11;;;;;;;3.77;2.10;;;;;;;;;;5114313;28;20424;-61
2022/07/28 03:00:39;;;;;;;2.77;2.07;;;;;;;;;;5113924;28;20456;-61
2022/07/28 03:03:06;;;;;;;3.73;2.00;;;;;;;;;;5113825;28;20921;-61
2022/07/28 03:05:33;;;;;;;4.17;2.40;;;;;;;;;;5113695;28;20697;-61
2022/07/28 03:08:00;;;;;;;4.83;2.50;;;;;;;;;;5113813;28;20452;-61
2022/07/28 03:10:28;;;;;;;3.23;2.93;;;;;;;;;;5113582;28;20823;-60
2022/07/28 03:12:56;;;;;;;4.40;2.53;;;;;;;;;;5113551;28;20420;-61
2022/07/28 03:15:23;;;;;;;6.43;2.30;;;;;;;;;;5113766;28;20476;-61
2022/07/28 03:17:51;;;;;;;2.43;1.93;;;;;;;;;;5113706;28;20784;-61
2022/07/28 03:20:18;;;;;;;3.40;2.40;;;;;;;;;;5113556;28;20421;-61
2022/07/28 03:22:45;;;;;;;4.03;2.53;;;;;;;;;;5113456;28;20448;-61
2022/07/28 03:25:16;;;;;;;3.30;2.50;;;;;;;;;;5113384;28;20994;-61
2022/07/28 03:27:46;;;;;;;3.37;2.20;;;;;;;;;;5113712;28;20456;-61
2022/07/28 03:30:15;;;;;;;5.40;2.57;;;;;;;;;;5113467;28;20424;-60
2022/07/28 03:32:44;;;;;;;2.70;2.10;;;;;;;;;;5113311;28;20481;-60
2022/07/28 03:35:11;;;;;;;4.80;2.80;;;;;;;;;;5113413;28;20536;-61
2022/07/28 03:37:41;;;;;;;4.17;2.70;;;;;;;;;;5113225;28;20431;-61
2022/07/28 03:40:09;;;;;;;3.80;2.40;;;;;;;;;;5113412;28;20441;-61
2022/07/28 03:42:37;;;;;;;2.47;2.30;;;;;;;;;;5113362;28;20507;-61
2022/07/28 03:45:05;;;;;;;2.40;2.10;;;;;;;;;;5113300;28;20868;-61
2022/07/28 03:47:33;;;;;;;2.87;2.30;;;;;;;;;;5113197;28;20525;-61
2022/07/28 03:50:00;;;;;;;2.80;2.60;;;;;;;;;;5113167;28;20442;-61
2022/07/28 03:52:27;;;;;;;2.07;1.87;;;;;;;;;;5112892;28;20477;-61
2022/07/28 03:54:54;;;;;;;6.43;2.90;;;;;;;;;;5113279;28;20424;-61
2022/07/28 03:57:21;;;;;;;3.17;2.80;;;;;;;;;;5112948;28;20501;-61
2022/07/28 03:59:48;;;;;;;3.40;2.30;;;;;;;;;;5113148;28;20915;-61
2022/07/28 04:02:15;;;;;;;2.97;2.77;;;;;;;;;;5113051;28;20535;-61
2022/07/28 04:04:43;;;;;;;2.07;1.97;;;;;;;;;;5112930;28;20936;-61
2022/07/28 04:07:10;;;;;;;4.40;2.63;;;;;;;;;;5113289;28;20427;-60
2022/07/28 04:09:37;;;;;;;4.23;3.50;;;;;;;;;;5113188;28;20481;-60
2022/07/28 04:12:04;;;;;;;3.13;2.73;;;;;;;;;;5112954;28;20841;-60
2022/07/28 04:14:31;;;;;;;2.40;2.20;;;;;;;;;;5113026;28;20460;-61
2022/07/28 04:16:58;;;;;;;3.63;2.67;;;;;;;;;;5115060;28;20453;-61
2022/07/28 04:19:25;;;;;;;2.40;2.20;;;;;;;;;;5116853;28;20511;-61
2022/07/28 04:21:53;;;;;;;2.50;2.30;;;;;;;;;;5117050;28;20446;-61
2022/07/28 04:24:20;;;;;;;5.40;2.70;;;;;;;;;;5116975;28;20450;-60
2022/07/28 04:26:47;;;;;;;4.67;2.50;;;;;;;;;;5116957;28;20783;-61
2022/07/28 04:29:14;;;;;;;7.43;2.40;;;;;;;;;;5116836;28;20797;-61
2022/07/28 04:31:41;;;;;;;3.10;2.80;;;;;;;;;;5116605;28;20460;-61
2022/07/28 04:34:08;;;;;;;3.13;2.70;;;;;;;;;;5116836;28;20456;-61
2022/07/28 04:36:40;;;;;;;3.37;2.67;;;;;;;;;;5116810;28;20424;-61
2022/07/28 04:39:09;;;;;;;5.40;2.97;;;;;;;;;;5116716;28;20457;-61
2022/07/28 04:41:36;;;;;;;4.83;3.00;;;;;;;;;;5116482;28;20420;-61
2022/07/28 04:44:03;;;;;;;10.10;3.87;;;;;;;;;;5116442;28;20990;-61
2022/07/28 04:46:30;;;;;;;4.90;3.27;;;;;;;;;;5116315;28;20416;-61
2022/07/28 04:48:57;;;;;;;8.27;2.73;;;;;;;;;;5116503;28;20440;-61
2022/07/28 04:51:24;;;;;;;4.17;2.77;;;;;;;;;;5116268;28;20492;-60
2022/07/28 04:53:52;;;;;;;4.03;3.00;;;;;;;;;;5116264;28;20452;-61
2022/07/28 04:56:20;;;;;;;4.50;2.87;;;;;;;;;;5116091;28;20478;-61
2022/07/28 04:58:47;;;;;;;4.03;2.40;;;;;;;;;;5116076;28;20424;-61
2022/07/28 05:01:14;;;;;;;6.30;3.47;;;;;;;;;;5116619;28;20834;-60
2022/07/28 05:03:41;;;;;;;4.87;2.67;;;;;;;;;;5116199;28;20450;-61
2022/07/28 05:06:08;;;;;;;4.37;2.87;;;;;;;;;;5116089;28;20446;-60
2022/07/28 05:08:35;;;;;;;4.93;3.43;;;;;;;;;;5116051;28;20421;-61
2022/07/28 05:11:02;;;;;;;5.67;2.80;;;;;;;;;;5115822;28;20446;-60
2022/07/28 05:13:30;;;;;;;4.57;2.37;;;;;;;;;;5115823;28;20452;-60
2022/07/28 05:15:57;;;;;;;7.43;3.27;;;;;;;;;;5116046;28;20481;-60
2022/07/28 05:18:23;;;;;;;3.53;2.47;;;;;;;;;;5115893;28;20446;-61
2022/07/28 05:20:50;;;;;;;4.60;2.57;;;;;;;;;;5115762;28;20424;-60
2022/07/28 05:23:17;;;;;;;5.87;2.70;;;;;;;;;;5115747;28;20487;-61
2022/07/28 05:25:44;;;;;;;7.07;3.30;;;;;;;;;;5115617;28;20451;-60
2022/07/28 05:28:11;;;;;;;4.03;2.17;;;;;;;;;;5115408;28;20446;-61
2022/07/28 05:30:39;;;;;;;4.30;2.10;;;;;;;;;;5115555;28;20531;-60
2022/07/28 05:33:06;;;;;;;4.50;2.30;;;;;;;;;;5115617;28;20900;-60
2022/07/28 05:35:33;;;;;;;3.20;2.03;;;;;;;;;;5115400;28;20933;-61
2022/07/28 05:38:00;;;;;;;3.00;2.20;;;;;;;;;;5115455;28;20449;-61
2022/07/28 05:40:27;;;;;;;3.50;2.30;;;;;;;;;;5115277;28;20479;-61
2022/07/28 05:42:54;;;;;;;5.53;1.63;;;;;;;;;;5115500;28;20541;-60
2022/07/28 05:45:23;;;;;;;2.73;1.70;;;;;;;;;;5115409;28;20453;-61
2022/07/28 05:47:52;;;;;;;6.20;2.20;;;;;;;;;;5115255;28;20540;-61
2022/07/28 05:50:20;;;;;;;6.80;1.87;;;;;;;;;;5115134;28;20457;-60
2022/07/28 05:52:47;;;;;;;6.67;2.40;;;;;;;;;;5115044;28;20473;-61
2022/07/28 05:55:15;;;;;;;4.60;1.90;;;;;;;;;;5114997;28;20454;-61
2022/07/28 05:57:42;;;;;;;11.63;2.17;;;;;;;;;;5114985;28;20816;-61
2022/07/28 06:00:09;;;;;;;11.30;2.40;;;;;;;;;;5115020;28;20477;-60
2022/07/28 06:02:37;;;;;;;6.00;1.70;;;;;;;;;;5114834;28;20727;-60
2022/07/28 06:05:06;;;;;;;3.13;1.70;;;;;;;;;;5114955;28;20457;-60
2022/07/28 06:07:33;;;;;;;6.40;1.60;;;;;;;;;;5114914;28;20460;-61
2022/07/28 06:10:00;;;;;;;3.30;2.13;;;;;;;;;;5115161;28;20442;-61
2022/07/28 06:12:26;;;;;;;5.50;2.07;;;;;;;;;;5114692;28;20481;-60
2022/07/28 06:14:53;;;;;;;4.33;1.80;;;;;;;;;;5114596;28;21009;-60
2022/07/28 06:17:20;;;;;;;5.97;2.00;;;;;;;;;;5114736;28;20507;-60
2022/07/28 06:19:47;;;;;;;5.50;1.97;;;;;;;;;;5114552;28;20445;-60
2022/07/28 06:22:15;;;;;;;5.57;1.70;;;;;;;;;;5114336;28;20455;-60
2022/07/28 06:24:45;;;;;;;2.47;1.37;;;;;;;;;;5114817;28;20468;-61
2022/07/28 06:27:12;;;;;;;5.03;1.70;;;;;;;;;;5114499;28;20457;-61
2022/07/28 06:29:39;;;;;;;10.20;1.80;;;;;;;;;;5114515;28;20653;-61
2022/07/28 06:32:06;;;;;;;3.00;1.60;;;;;;;;;;5114251;28;21053;-61
2022/07/28 06:34:39;;;;;;;1.57;1.30;;;;;;;;;;5114708;28;20880;-61
2022/07/28 06:37:06;;;;;;;2.57;1.70;;;;;;;;;;5113560;28;20442;-61
2022/07/28 06:39:34;;;;;;;4.77;1.87;;;;;;;;;;5113750;28;20454;-61
2022/07/28 06:42:01;;;;;;;2.47;1.20;;;;;;;;;;5114268;28;20571;-61
2022/07/28 06:44:28;;;;;;;4.40;1.53;;;;;;;;;;5114136;28;20806;-61
2022/07/28 06:46:57;;;;;;;2.33;1.37;;;;;;;;;;5114122;28;20452;-61
2022/07/28 06:49:23;;;;;;;3.80;1.67;;;;;;;;;;5113913;28;20450;-61
2022/07/28 06:51:50;;;;;;;2.63;1.30;;;;;;;;;;5114099;28;20790;-61
2022/07/28 06:54:17;;;;;;;5.13;2.07;;;;;;;;;;5114040;28;20446;-61
2022/07/28 06:56:45;;;;;;;3.87;1.57;;;;;;;;;;5113914;28;20824;-61
2022/07/28 06:59:14;;;;;;;4.63;1.37;;;;;;;;;;5113887;28;20540;-61
2022/07/28 07:01:40;;;;;;;5.70;1.80;;;;;;;;;;5113739;28;20442;-61
2022/07/28 07:04:07;;;;;;;3.10;1.47;;;;;;;;;;5113629;28;20482;-61
2022/07/28 07:06:34;;;;;;;3.70;1.60;;;;;;;;;;5113771;28;20449;-61
2022/07/28 07:09:02;;;;;;;3.30;1.40;;;;;;;;;;5113745;28;20453;-61
2022/07/28 07:11:29;;;;;;;7.47;1.83;;;;;;;;;;5113538;28;20544;-61
2022/07/28 07:13:57;;;;;;;7.70;1.50;;;;;;;;;;5113515;28;20477;-61
2022/07/28 07:16:24;;;;;;;2.30;1.30;;;;;;;;;;5113415;28;20796;-61
2022/07/28 07:18:51;;;;;;;3.30;1.67;;;;;;;;;;5113670;28;20448;-61
2022/07/28 07:21:18;;;;;;;7.30;1.93;;;;;;;;;;5113458;28;20441;-61
2022/07/28 07:23:45;;;;;;;10.50;1.50;;;;;;;;;;5113294;28;20592;-61
2022/07/28 07:26:12;;;;;;;2.70;1.40;;;;;;;;;;5111081;28;20791;-61
2022/07/28 07:28:40;;;;;;;8.30;2.40;;;;;;;;;;5112460;28;20453;-60
2022/07/28 07:31:08;;;;;;;4.40;1.87;;;;;;;;;;5111624;28;21009;-59
2022/07/28 07:33:35;;;;;;;1.90;1.40;;;;;;;;;;5109283;28;20477;-61
2022/07/28 07:36:02;;;;;;;2.50;1.63;;;;;;;;;;5112007;28;20481;-63
2022/07/28 07:38:29;;;;;;;9.53;1.80;;;;;;;;;;5109691;28;20462;-61
2022/07/28 07:40:56;;;;;;;5.57;1.57;;;;;;;;;;5092345;28;20447;-59
2022/07/28 07:43:24;;;;;;;5.80;1.63;;;;;;;;;;5095288;28;20446;-59
2022/07/28 07:45:51;;;;;;;2.63;1.40;;;;;;;;;;5100231;28;20442;-61
2022/07/28 07:48:19;;;;;;;4.70;1.40;;;;;;;;;;5113069;28;20484;-61
2022/07/28 07:50:46;;;;;;;4.80;1.77;;;;;;;;;;5112098;28;20875;-60
2022/07/28 07:53:13;;;;;;;11.30;1.53;;;;;;;;;;5108961;28;20474;-59
2022/07/28 07:55:40;;;;;;;3.77;2.37;;;;;;;;;;5112923;28;20560;-60
2022/07/28 07:58:07;;;;;;;3.60;1.30;;;;;;;;;;5111548;28;20591;-60
2022/07/28 08:00:34;;;;;;;6.60;1.60;;;;;;;;;;5097050;28;20553;-60
2022/07/28 08:03:01;;;;;;;4.90;1.60;;;;;;;;;;5106139;28;20484;-60
2022/07/28 08:05:29;;;;;;;2.60;1.60;;;;;;;;;;5116038;28;20460;-59
2022/07/28 08:07:56;;;;;;;3.17;1.40;;;;;;;;;;5116105;28;20456;-59
2022/07/28 08:10:23;;;;;;;4.83;1.40;;;;;;;;;;5116739;28;20476;-59
2022/07/28 08:12:50;;;;;;;11.33;3.33;;;;;;;;;;5112321;28;20466;-60
2022/07/28 08:15:17;;;;;;;5.40;1.50;;;;;;;;;;5116086;28;20883;-61
2022/07/28 08:17:44;;;;;;;5.30;1.50;;;;;;;;;;5111624;28;20450;-60
2022/07/28 08:20:11;;;;;;;4.67;1.80;;;;;;;;;;5096526;28;20438;-59
2022/07/28 08:22:48;;;;;;;3.97;2.13;;;;;;;;;;5116400;28;20455;-59
2022/07/28 08:25:15;;;;;;;4.10;1.67;;;;;;;;;;5115176;28;20500;-60
2022/07/28 08:27:42;;;;;;;3.73;1.40;;;;;;;;;;5115067;28;20504;-59
2022/07/28 08:30:09;;;;;;;5.73;1.93;;;;;;;;;;5114990;28;20450;-59
2022/07/28 08:32:36;;;;;;;6.33;1.80;;;;;;;;;;5116193;28;20467;-62
2022/07/28 08:35:04;;;;;;;2.20;1.43;;;;;;;;;;5113696;28;20528;-60
2022/07/28 08:37:30;;;;;;;6.13;1.53;;;;;;;;;;5115360;28;20445;-60
2022/07/28 08:39:59;;;;;;;8.73;2.10;;;;;;;;;;5114569;28;20445;-59
2022/07/28 08:42:28;;;;;;;2.90;1.30;;;;;;;;;;5116512;28;21008;-61
2022/07/28 08:44:59;;;;;;;2.70;1.30;;;;;;;;;;5114778;28;20800;-61
2022/07/28 08:47:27;;;;;;;6.37;1.50;;;;;;;;;;5113662;28;20471;-62
2022/07/28 08:49:54;;;;;;;5.27;1.40;;;;;;;;;;5112713;28;20933;-62
2022/07/28 08:52:22;;;;;;;5.10;1.30;;;;;;;;;;5114005;28;20463;-64
2022/07/28 08:54:50;;;;;;;5.17;2.07;;;;;;;;;;5113538;28;21005;-61
2022/07/28 08:57:20;;;;;;;2.30;1.30;;;;;;;;;;5114970;28;20877;-60
2022/07/28 08:59:49;;;;;;;2.50;1.43;;;;;;;;;;5115401;28;20778;-60
2022/07/28 09:02:16;;;;;;;5.57;1.53;;;;;;;;;;5112508;28;20438;-60
2022/07/28 09:04:44;;;;;;;5.13;1.70;;;;;;;;;;5115860;28;20445;-61
2022/07/28 09:07:11;;;;;;;5.70;1.50;;;;;;;;;;5113700;28;20877;-63
2022/07/28 09:09:39;;;;;;;4.80;1.70;;;;;;;;;;5111708;28;20445;-62
2022/07/28 09:12:06;;;;;;;2.00;1.57;;;;;;;;;;5111415;28;20442;-62
2022/07/28 09:14:34;;;;;;;5.00;1.87;;;;;;;;;;5115183;28;20813;-61
2022/07/28 09:17:02;;;;;;;4.50;4.07;;;;;;;;;;5115746;28;20441;-61
2022/07/28 09:19:29;;;;;;;5.50;1.70;;;;;;;;;;5115603;28;20778;-61
2022/07/28 09:21:56;;;;;;;7.67;2.03;;;;;;;;;;5114441;28;20936;-60
2022/07/28 09:24:33;;;;;;;3.17;1.60;;;;;;;;;;5115487;28;20441;-61
2022/07/28 09:27:01;;;;;;;3.30;1.27;;;;;;;;;;5114919;28;20472;-65
2022/07/28 09:29:28;;;;;;;5.00;1.57;;;;;;;;;;5107805;27;20449;-61
2022/07/28 09:31:57;;;;;;;3.33;1.20;;;;;;;;;;5101362;28;20449;-63
2022/07/28 09:34:24;;;;;;;3.57;1.97;;;;;;;;;;5113311;28;20473;-63
2022/07/28 09:36:51;;;;;;;4.03;1.87;;;;;;;;;;5111417;27;20452;-61
2022/07/28 09:39:29;;;;;;;2.50;1.23;;;;;;;;;;5114810;28;20444;-64
2022/07/28 09:41:56;;;;;;;5.27;1.63;;;;;;;;;;5114485;28;20464;-63
2022/07/28 09:44:25;;;;;;;2.20;1.50;;;;;;;;;;5108405;28;20469;-62
2022/07/28 09:46:52;;;;;;;2.50;1.40;;;;;;;;;;5114154;28;20734;-66
2022/07/28 09:49:20;;;;;;;3.03;1.37;;;;;;;;;;5114297;28;20951;-62
2022/07/28 09:51:59;;;;;;;4.47;1.67;;;;;;;;;;5114304;28;20450;-62
2022/07/28 09:54:26;;;;;;;3.87;1.50;;;;;;;;;;5115023;28;20481;-59
2022/07/28 09:56:54;;;;;;;2.70;1.30;;;;;;;;;;5103330;27;21042;-63
2022/07/28 09:59:21;;;;;;;6.47;1.80;;;;;;;;;;5115186;28;21019;-63
2022/07/28 10:01:52;;;;;;;3.60;1.80;;;;;;;;;;5105185;28;20457;-58
2022/07/28 10:04:30;;;;;;;5.00;1.77;;;;;;;;;;5108765;28;20455;-60
2022/07/28 10:07:01;;;;;;;2.80;2.00;;;;;;;;;;5111399;28;20458;-59
2022/07/28 10:09:28;;;;;;;3.60;1.80;;;;;;;;;;5113394;28;20507;-60
2022/07/28 10:11:57;;;;;;;4.70;1.70;;;;;;;;;;5114565;28;20530;-60
2022/07/28 10:14:32;;;;;;;2.80;1.60;;;;;;;;;;5111506;28;20678;-62
2022/07/28 10:16:59;;;;;;;2.63;1.33;;;;;;;;;;5114139;28;20447;-62
2022/07/28 10:19:26;;;;;;;4.43;1.80;;;;;;;;;;5114212;28;20449;-61
2022/07/28 10:21:56;;;;;;;6.07;1.93;;;;;;;;;;5113912;28;20448;-61
2022/07/28 10:24:23;;;;;;;2.17;1.30;;;;;;;;;;5112398;27;20493;-63
2022/07/28 10:26:51;;;;;;;4.00;1.40;;;;;;;;;;5105983;27;20473;-62
2022/07/28 10:29:20;;;;;;;5.37;1.40;;;;;;;;;;5103574;28;20458;-64
2022/07/28 10:31:49;;;;;;;5.17;1.83;;;;;;;;;;5105239;27;20449;-62
2022/07/28 10:34:20;;;;;;;2.53;1.33;;;;;;;;;;5103738;28;20865;-62
2022/07/28 10:36:47;;;;;;;3.77;1.57;;;;;;;;;;5114088;28;20465;-61
2022/07/28 10:39:19;;;;;;;1.87;1.63;;;;;;;;;;5114088;28;20448;-62
2022/07/28 10:41:45;;;;;;;4.43;1.70;;;;;;;;;;5113812;28;20801;-62
2022/07/28 10:44:17;;;;;;;1.97;1.77;;;;;;;;;;5113277;28;20485;-61
2022/07/28 10:46:44;;;;;;;2.50;1.57;;;;;;;;;;5113941;28;20989;-61
2022/07/28 10:49:12;;;;;;;6.77;1.50;;;;;;;;;;5112779;28;20545;-63
2022/07/28 10:51:40;;;;;;;2.97;1.20;;;;;;;;;;5111149;28;20492;-62
2022/07/28 10:54:09;;;;;;;4.33;1.80;;;;;;;;;;5113838;28;20481;-62
2022/07/28 10:56:44;;;;;;;3.70;1.50;;;;;;;;;;5113573;28;20476;-62
2022/07/28 10:59:15;;;;;;;4.53;1.33;;;;;;;;;;5112435;28;20652;-65
2022/07/28 11:01:43;;;;;;;4.07;1.43;;;;;;;;;;5111854;28;20426;-59
2022/07/28 11:04:30;;;;;;;3.00;1.40;;;;;;;;;;5107773;27;20448;-58
2022/07/28 11:07:09;;;;;;;3.13;1.27;;;;;;;;;;5111151;28;20541;-59
2022/07/28 11:09:36;;;;;;;3.00;1.80;;;;;;;;;;5111704;28;20449;-59
2022/07/28 11:12:05;;;;;;;3.93;1.30;;;;;;;;;;5110288;28;20808;-59
2022/07/28 11:14:36;;;;;;;3.90;1.50;;;;;;;;;;5113347;28;20473;-64
2022/07/28 11:17:13;;;;;;;1.53;1.43;;;;;;;;;;5112754;28;20477;-59
2022/07/28 11:19:50;;;;;;;2.50;1.80;;;;;;;;;;5110960;28;20970;-58
2022/07/28 11:22:21;;;;;;;2.80;1.40;;;;;;;;;;5111498;28;20453;-59
2022/07/28 11:25:07;;;;;;;4.00;1.67;;;;;;;;;;5105213;28;20868;-61
2022/07/28 11:27:54;;;;;;;1.90;1.30;;;;;;;;;;5107756;28;20446;-60
2022/07/28 11:30:36;;;;;;;3.73;2.10;;;;;;;;;;5110526;28;20462;-55
2022/07/28 11:33:05;;;;;;;3.07;1.50;;;;;;;;;;5111717;28;20448;-62
2022/07/28 11:35:52;;;;;;;3.77;1.50;;;;;;;;;;5113209;28;20446;-61
2022/07/28 11:38:20;;;;;;;2.07;1.40;;;;;;;;;;5111050;28;20461;-59
2022/07/28 11:40:48;;;;;;;3.00;1.50;;;;;;;;;;5112495;28;20532;-59
2022/07/28 11:43:30;;;;;;;4.50;2.67;;;;;;;;;;5109395;28;20445;-60
2022/07/28 11:46:18;;;;;;;1.70;1.30;;;;;;;;;;5107860;28;20507;-61
2022/07/28 11:48:48;;;;;;;2.30;1.43;;;;;;;;;;5106808;28;20452;-60
2022/07/28 11:51:15;;;;;;;6.20;1.80;;;;;;;;;;5110805;28;20949;-60
2022/07/28 11:53:43;;;;;;;3.80;1.20;;;;;;;;;;5112966;28;20484;-59
2022/07/28 11:56:11;;;;;;;3.13;1.70;;;;;;;;;;5113119;28;20469;-60
2022/07/28 11:58:38;;;;;;;3.53;1.40;;;;;;;;;;5106218;28;20469;-60
2022/07/28 12:01:12;;;;;;;4.60;1.80;;;;;;;;;;5092648;28;20442;-65
2022/07/28 12:03:40;;;;;;;2.87;1.33;;;;;;;;;;5093369;28;20446;-62
2022/07/28 12:06:09;;;;;;;3.87;1.60;;;;;;;;;;5112793;28;20528;-60
2022/07/28 12:08:50;;;;;;;4.40;1.30;;;;;;;;;;5113055;28;20448;-59
2022/07/28 12:11:17;;;;;;;2.47;1.30;;;;;;;;;;5113101;28;20463;-58
2022/07/28 12:13:44;;;;;;;2.93;1.40;;;;;;;;;;5111960;28;20469;-60
2022/07/28 12:16:11;;;;;;;4.10;1.60;;;;;;;;;;5102102;28;20446;-60
2022/07/28 12:18:38;;;;;;;7.10;2.30;;;;;;;;;;5112597;28;20448;-62
2022/07/28 12:21:05;;;;;;;5.73;1.73;;;;;;;;;;5106591;28;20478;-62
2022/07/28 12:23:36;;;;;;;1.90;1.40;;;;;;;;;;5091918;28;20925;-62
2022/07/28 12:26:05;;;;;;;3.60;1.93;;;;;;;;;;5092400;28;20472;-62
2022/07/28 12:28:32;;;;;;;6.73;2.67;;;;;;;;;;5092526;28;20450;-62
2022/07/28 12:31:10;;;;;;;3.80;1.27;;;;;;;;;;5092220;28;20446;-62
2022/07/28 12:33:37;;;;;;;2.20;1.60;;;;;;;;;;5092465;28;20500;-62
2022/07/28 12:36:04;;;;;;;2.10;1.10;;;;;;;;;;5092545;28;20545;-62
2022/07/28 12:38:31;;;;;;;3.47;1.50;;;;;;;;;;5095453;28;20837;-62
2022/07/28 12:41:00;;;;;;;4.67;2.40;;;;;;;;;;5096061;28;20538;-62
2022/07/28 12:43:29;;;;;;;3.70;1.63;;;;;;;;;;5096109;28;20446;-62
2022/07/28 12:45:56;;;;;;;1.67;1.03;;;;;;;;;;5096218;28;20825;-62
2022/07/28 12:48:23;;;;;;;5.40;1.70;;;;;;;;;;5096075;28;20438;-62
2022/07/28 12:50:50;;;;;;;2.80;1.20;;;;;;;;;;5095914;28;20439;-62
2022/07/28 12:53:20;;;;;;;2.90;1.43;;;;;;;;;;5095984;28;20454;-62
2022/07/28 12:55:47;;;;;;;2.03;1.37;;;;;;;;;;5095645;28;20485;-62
2022/07/28 12:58:23;;;;;;;2.20;1.33;;;;;;;;;;5095697;28;20446;-62
2022/07/28 13:00:51;;;;;;;2.60;1.20;;;;;;;;;;5095802;28;20450;-62
2022/07/28 13:03:22;;;;;;;2.00;1.20;;;;;;;;;;5095777;28;20509;-62
2022/07/28 13:06:04;;;;;;;3.13;1.30;;;;;;;;;;5095687;28;21065;-62
2022/07/28 13:08:39;;;;;;;1.83;1.30;;;;;;;;;;5095449;28;20482;-62
2022/07/28 13:11:06;;;;;;;4.00;1.83;;;;;;;;;;5095672;28;20450;-62
2022/07/28 13:13:46;;;;;;;4.67;2.23;;;;;;;;;;5095503;28;20482;-62
2022/07/28 13:16:14;;;;;;;2.13;1.43;;;;;;;;;;5095610;28;20450;-62
2022/07/28 13:18:41;;;;;;;2.40;1.37;;;;;;;;;;5095479;28;20439;-62
2022/07/28 13:21:09;;;;;;;1.50;1.00;;;;;;;;;;5095188;28;20460;-62
2022/07/28 13:23:36;;;;;;;2.20;1.50;;;;;;;;;;5095463;28;20484;-62
2022/07/28 13:26:04;;;;;;;7.07;1.60;;;;;;;;;;5095344;28;20442;-62
2022/07/28 13:28:31;;;;;;;2.20;1.20;;;;;;;;;;5095295;28;20945;-62
2022/07/28 13:30:59;;;;;;;1.83;1.60;;;;;;;;;;5094949;28;20457;-62
2022/07/28 13:33:27;;;;;;;3.97;1.63;;;;;;;;;;5094899;28;20801;-62
2022/07/28 13:35:54;;;;;;;1.53;1.43;;;;;;;;;;5095116;28;20837;-62
2022/07/28 13:38:21;;;;;;;3.87;1.73;;;;;;;;;;5094982;28;20496;-62
2022/07/28 13:40:48;;;;;;;1.47;1.30;;;;;;;;;;5095168;28;20516;-62
2022/07/28 13:43:15;;;;;;;5.03;2.00;;;;;;;;;;5095376;28;20842;-62
2022/07/28 13:45:42;;;;;;;3.10;1.23;;;;;;;;;;5094917;28;20450;-62
2022/07/28 13:48:10;;;;;;;3.50;1.30;;;;;;;;;;5094208;28;20531;-62
2022/07/28 13:50:37;;;;;;;4.60;1.33;;;;;;;;;;5094300;28;20454;-62
2022/07/28 13:53:04;;;;;;;2.30;1.50;;;;;;;;;;5094885;28;20446;-62
2022/07/28 13:55:30;;;;;;;3.60;1.23;;;;;;;;;;5094623;28;21030;-62
2022/07/28 13:57:57;;;;;;;4.60;2.13;;;;;;;;;;5094385;28;20475;-62
2022/07/28 14:00:24;;;;;;;2.13;1.37;;;;;;;;;;5094969;28;20545;-62
2022/07/28 14:02:51;;;;;;;5.20;1.40;;;;;;;;;;5094543;28;20533;-62
2022/07/28 14:05:20;;;;;;;2.97;1.50;;;;;;;;;;5094721;28;20453;-62
2022/07/28 14:07:47;;;;;;;1.53;1.30;;;;;;;;;;5094650;28;20538;-62
2022/07/28 14:10:14;;;;;;;2.37;1.50;;;;;;;;;;5094430;28;20461;-62
2022/07/28 14:12:41;;;;;;;2.17;1.20;;;;;;;;;;5094404;28;20446;-62
2022/07/28 14:15:09;;;;;;;7.87;2.57;;;;;;;;;;5094267;28;20890;-62
2022/07/28 14:17:36;;;;;;;2.20;1.40;;;;;;;;;;5094371;28;20458;-62
2022/07/28 14:20:04;;;;;;;3.03;1.27;;;;;;;;;;5094607;28;20449;-62
2022/07/28 14:22:32;;;;;;;2.77;1.60;;;;;;;;;;5094300;28;20446;-62
2022/07/28 14:24:59;;;;;;;2.93;1.30;;;;;;;;;;5094158;28;20449;-62
2022/07/28 14:27:26;;;;;;;2.00;1.13;;;;;;;;;;5094168;28;20475;-62
2022/07/28 14:29:53;;;;;;;4.00;1.57;;;;;;;;;;5093937;28;20449;-62
2022/07/28 14:32:20;;;;;;;1.47;1.27;;;;;;;;;;5094136;28;20447;-61
2022/07/28 14:34:47;;;;;;;3.80;1.10;;;;;;;;;;5093951;28;20477;-61
2022/07/28 14:37:14;;;;;;;3.60;1.10;;;;;;;;;;5093852;28;20447;-62
2022/07/28 14:39:42;;;;;;;1.60;1.50;;;;;;;;;;5093789;28;20766;-61
2022/07/28 14:42:10;;;;;;;7.23;1.60;;;;;;;;;;5093674;28;20453;-61
2022/07/28 14:44:37;;;;;;;3.43;1.30;;;;;;;;;;5093619;28;20945;-61
2022/07/28 14:47:05;;;;;;;4.90;1.90;;;;;;;;;;5093858;28;20446;-61
2022/07/28 14:49:32;;;;;;;1.20;1.10;;;;;;;;;;5093882;28;20482;-61
2022/07/28 14:51:59;;;;;;;3.67;1.57;;;;;;;;;;5093542;28;20946;-61
2022/07/28 14:54:26;;;;;;;2.30;1.40;;;;;;;;;;5093407;28;20480;-61